Time;durP1;ratioP1;P1;durP2;ratioP2;P2;SDS_P1;SDS_P2;PMS_P1;PMS_P2;Temp;Humidity;BMP_temperature;BMP_pressure;BME280_temperature;BME280_humidity;BME280_pressure;Samples;Min_cycle;Max_cycle;Signal;HPM_P1;HPM_P2
2023/09/29 00:01:37;;;;;;;13.15;4.32;;;;;;;15.17;100.00;101459.84;5012199;28;20134;-88
2023/09/29 00:04:06;;;;;;;12.77;4.57;;;;;;;15.22;100.00;101459.03;5010791;28;20080;-89
2023/09/29 00:06:32;;;;;;;12.10;4.43;;;;;;;15.21;100.00;101460.91;5010527;28;20052;-88
2023/09/29 00:08:59;;;;;;;11.97;4.17;;;;;;;15.23;100.00;101458.75;5011582;28;20512;-86
2023/09/29 00:11:25;;;;;;;12.80;4.75;;;;;;;15.19;100.00;101446.88;5011917;28;20025;-86
2023/09/29 00:13:50;;;;;;;13.45;4.22;;;;;;;15.21;100.00;101455.50;5009960;28;20026;-87
2023/09/29 00:16:16;;;;;;;14.50;4.57;;;;;;;15.17;100.00;101462.53;5012807;28;20022;-89
2023/09/29 00:18:42;;;;;;;13.93;4.67;;;;;;;15.21;100.00;101462.81;5010286;28;20029;-87
2023/09/29 00:21:07;;;;;;;12.27;3.85;;;;;;;15.21;100.00;101458.22;5011528;28;20112;-87
2023/09/29 00:23:33;;;;;;;13.40;4.10;;;;;;;15.25;100.00;101459.28;5009178;28;20525;-87
2023/09/29 00:25:58;;;;;;;18.08;4.22;;;;;;;15.25;100.00;101464.69;5010982;28;20236;-87
2023/09/29 00:28:24;;;;;;;12.30;4.27;;;;;;;15.26;100.00;101450.13;5011481;28;20469;-86
2023/09/29 00:30:49;;;;;;;14.03;4.20;;;;;;;15.29;100.00;101459.53;5011120;28;20120;-87
2023/09/29 00:33:14;;;;;;;15.87;4.70;;;;;;;15.33;100.00;101451.72;5010154;28;20375;-86
2023/09/29 00:35:40;;;;;;;13.90;4.33;;;;;;;15.37;100.00;101455.47;5009620;28;20165;-87
2023/09/29 00:38:05;;;;;;;14.63;4.30;;;;;;;15.39;100.00;101454.13;5010375;28;20088;-87
2023/09/29 00:40:31;;;;;;;9.37;4.13;;;;;;;15.44;100.00;101451.38;5009024;28;20022;-87
2023/09/29 00:42:57;;;;;;;13.15;4.25;;;;;;;15.48;100.00;101446.28;5010623;28;20033;-87
2023/09/29 00:45:25;;;;;;;14.52;4.00;;;;;;;15.50;100.00;101444.09;5009621;28;20022;-86
2023/09/29 00:47:55;;;;;;;13.38;3.55;;;;;;;15.52;100.00;101450.00;5010510;28;20033;-87
2023/09/29 00:50:21;;;;;;;11.70;4.35;;;;;;;15.55;100.00;101446.75;5010611;28;20480;-87
2023/09/29 00:52:50;;;;;;;12.45;4.50;;;;;;;15.58;100.00;101440.03;5010720;28;20112;-87
2023/09/29 00:55:17;;;;;;;10.40;4.70;;;;;;;15.62;100.00;101437.56;5009853;28;20469;-87
2023/09/29 00:57:48;;;;;;;14.48;4.60;;;;;;;15.62;100.00;101434.88;5010539;28;20026;-87
2023/09/29 01:00:30;;;;;;;9.77;3.97;;;;;;;15.62;100.00;101432.97;5009956;28;20033;-87
2023/09/29 01:03:06;;;;;;;7.82;3.70;;;;;;;15.65;100.00;101434.31;5010574;28;20108;-87
2023/09/29 01:05:44;;;;;;;8.07;4.00;;;;;;;15.66;100.00;101431.31;5009256;28;20036;-86
2023/09/29 01:08:12;;;;;;;13.27;4.07;;;;;;;15.68;100.00;101441.88;4991016;28;20093;-87
2023/09/29 01:10:41;;;;;;;8.50;3.85;;;;;;;15.67;100.00;101432.94;4996949;28;20435;-87
2023/09/29 01:13:08;;;;;;;12.77;3.72;;;;;;;15.65;100.00;101424.31;5008856;28;20153;-87
2023/09/29 01:15:34;;;;;;;12.45;3.80;;;;;;;15.67;100.00;101426.75;5009652;28;20040;-87
2023/09/29 01:18:01;;;;;;;13.20;3.77;;;;;;;15.68;100.00;101431.06;5010087;28;20029;-87
2023/09/29 01:20:30;;;;;;;7.03;4.00;;;;;;;15.68;100.00;101428.38;5009193;28;20853;-87
2023/09/29 01:22:56;;;;;;;9.32;3.60;;;;;;;15.66;100.00;101422.44;5009033;28;20105;-87
2023/09/29 01:25:22;;;;;;;9.43;3.80;;;;;;;15.68;100.00;101409.44;5009596;28;20034;-87
2023/09/29 01:27:48;;;;;;;6.80;3.67;;;;;;;15.70;100.00;101415.38;5010218;28;20029;-87
2023/09/29 01:30:16;;;;;;;7.78;3.35;;;;;;;15.69;100.00;101413.78;5009951;28;20022;-86
2023/09/29 01:32:48;;;;;;;8.07;3.10;;;;;;;15.70;100.00;101416.19;5009665;28;20076;-87
2023/09/29 01:35:23;;;;;;;11.83;3.67;;;;;;;15.70;100.00;101410.78;5008278;28;20408;-87
2023/09/29 01:37:53;;;;;;;7.17;3.60;;;;;;;15.71;100.00;101407.00;5007962;28;20309;-87
2023/09/29 01:40:21;;;;;;;8.43;3.45;;;;;;;15.72;100.00;101403.22;5010236;28;20409;-87
2023/09/29 01:42:46;;;;;;;11.07;3.80;;;;;;;15.72;100.00;101396.97;5008937;28;20076;-85
2023/09/29 01:45:13;;;;;;;7.05;3.42;;;;;;;15.73;100.00;101388.63;5009146;28;20030;-86
2023/09/29 01:47:40;;;;;;;7.43;3.40;;;;;;;15.73;100.00;101388.63;5008356;28;20500;-84
2023/09/29 01:50:06;;;;;;;7.40;3.30;;;;;;;15.77;100.00;101388.06;5008766;28;20290;-84
2023/09/29 01:52:31;;;;;;;8.57;3.20;;;;;;;15.75;100.00;101380.22;5010247;28;20025;-84
2023/09/29 01:54:57;;;;;;;5.68;3.05;;;;;;;15.76;100.00;101387.25;5009329;28;20388;-84
2023/09/29 01:57:22;;;;;;;7.57;3.40;;;;;;;15.79;100.00;101375.09;5010285;28;20036;-85
2023/09/29 01:59:48;;;;;;;8.27;3.00;;;;;;;15.79;100.00;101373.19;5010996;28;20038;-84
2023/09/29 02:02:14;;;;;;;6.93;3.03;;;;;;;15.81;100.00;101372.88;5015419;28;20045;-85
2023/09/29 02:04:39;;;;;;;6.87;3.20;;;;;;;15.83;100.00;101376.94;5007643;28;20201;-85
2023/09/29 02:07:05;;;;;;;5.53;2.83;;;;;;;15.81;100.00;101370.19;5009896;28;20022;-86
2023/09/29 02:09:30;;;;;;;7.40;3.30;;;;;;;15.84;100.00;101369.63;5007719;28;20504;-85
2023/09/29 02:11:55;;;;;;;7.07;2.90;;;;;;;15.81;100.00;101362.06;5009569;28;20030;-85
2023/09/29 02:14:21;;;;;;;6.10;2.70;;;;;;;15.84;100.00;101362.34;5010287;28;20030;-85
2023/09/29 02:16:48;;;;;;;7.73;2.93;;;;;;;15.83;100.00;101359.91;5010759;28;20184;-86
2023/09/29 02:19:14;;;;;;;8.95;3.00;;;;;;;15.86;100.00;101362.91;5005048;28;20029;-85
2023/09/29 02:21:41;;;;;;;3.67;2.35;;;;;;;15.86;100.00;101371.00;5009562;28;20377;-86
2023/09/29 02:24:07;;;;;;;6.57;2.70;;;;;;;15.82;100.00;101369.91;5010124;28;20084;-86
2023/09/29 02:26:34;;;;;;;7.10;3.00;;;;;;;15.80;100.00;101361.28;5008250;28;20845;-85
2023/09/29 02:29:00;;;;;;;4.95;2.40;;;;;;;15.82;100.00;101355.59;5008763;28;20053;-85
2023/09/29 02:31:26;;;;;;;7.00;2.60;;;;;;;15.81;100.00;101354.78;5009567;28;20092;-85
2023/09/29 02:33:53;;;;;;;5.45;2.70;;;;;;;15.83;100.00;101344.50;5009846;28;20085;-85
2023/09/29 02:36:18;;;;;;;4.57;2.30;;;;;;;15.87;100.00;101345.59;5008162;28;20053;-85
2023/09/29 02:38:44;;;;;;;5.68;2.40;;;;;;;15.88;100.00;101333.72;5007928;28;20477;-85
2023/09/29 02:41:09;;;;;;;2.97;2.03;;;;;;;15.95;100.00;101337.97;5009399;28;20389;-85
2023/09/29 02:43:34;;;;;;;4.63;2.40;;;;;;;16.02;100.00;101349.28;5009961;28;20030;-85
2023/09/29 02:46:00;;;;;;;7.37;2.20;;;;;;;16.05;100.00;101332.50;5008962;28;20073;-86
2023/09/29 02:48:27;;;;;;;4.37;2.17;;;;;;;16.09;100.00;101336.22;5008999;28;20030;-86
2023/09/29 02:50:53;;;;;;;3.87;2.23;;;;;;;16.11;100.00;101325.94;5008339;28;20277;-85
2023/09/29 02:53:18;;;;;;;6.40;2.25;;;;;;;16.15;100.00;101320.81;5005324;28;20022;-85
2023/09/29 02:55:46;;;;;;;4.30;2.43;;;;;;;16.16;100.00;101336.72;5008776;28;20079;-86
2023/09/29 02:58:12;;;;;;;5.53;2.50;;;;;;;16.19;100.00;101328.06;5000269;28;20030;-86
2023/09/29 03:00:41;;;;;;;5.50;2.35;;;;;;;16.24;100.00;101334.50;5011055;28;20045;-85
2023/09/29 03:03:06;;;;;;;7.35;2.50;;;;;;;16.24;100.00;101321.00;5013150;28;20033;-85
2023/09/29 03:05:35;;;;;;;5.13;2.40;;;;;;;16.26;100.00;101314.19;5011242;28;20022;-86
2023/09/29 03:08:00;;;;;;;5.80;2.60;;;;;;;16.28;100.00;101313.91;5012639;28;20110;-86
2023/09/29 03:10:28;;;;;;;7.00;2.57;;;;;;;16.27;100.00;101315.00;5012359;28;20574;-86
2023/09/29 03:12:56;;;;;;;4.75;2.33;;;;;;;16.30;100.00;101317.13;5011348;28;20033;-85
2023/09/29 03:15:22;;;;;;;6.68;2.45;;;;;;;16.29;100.00;101318.22;5012280;28;20033;-86
2023/09/29 03:17:47;;;;;;;3.53;2.43;;;;;;;16.30;100.00;101314.44;5012220;28;20022;-87
2023/09/29 03:20:14;;;;;;;5.73;2.47;;;;;;;16.30;100.00;101311.72;5011226;28;20376;-86
2023/09/29 03:22:40;;;;;;;5.70;2.30;;;;;;;16.30;100.00;101314.44;5012727;28;20029;-85
2023/09/29 03:25:07;;;;;;;3.53;2.07;;;;;;;16.26;100.00;101306.09;5011195;28;20299;-87
2023/09/29 03:27:34;;;;;;;5.47;2.25;;;;;;;16.29;100.00;101315.53;5013061;28;20022;-87
2023/09/29 03:30:00;;;;;;;5.82;2.40;;;;;;;16.25;100.00;101300.97;5011427;28;20026;-87
2023/09/29 03:32:26;;;;;;;7.97;2.90;;;;;;;16.24;100.00;101302.88;5012551;28;20044;-87
2023/09/29 03:34:52;;;;;;;6.37;2.53;;;;;;;16.15;100.00;101294.56;5010750;28;20026;-87
2023/09/29 03:37:18;;;;;;;6.63;2.67;;;;;;;16.19;100.00;101292.09;5012218;28;20296;-86
2023/09/29 03:39:43;;;;;;;4.70;2.42;;;;;;;16.10;100.00;101278.38;5011625;28;20030;-85
2023/09/29 03:42:09;;;;;;;6.83;2.47;;;;;;;16.12;100.00;101289.72;5012583;28;20080;-86
2023/09/29 03:44:34;;;;;;;3.50;2.73;;;;;;;16.12;100.00;101286.22;5010979;28;20161;-86
2023/09/29 03:47:00;;;;;;;4.50;2.45;;;;;;;16.12;100.00;101281.59;5010289;28;20029;-86
2023/09/29 03:49:26;;;;;;;5.40;2.63;;;;;;;16.10;100.00;101255.97;5010579;28;20033;-87
2023/09/29 03:51:52;;;;;;;6.97;3.30;;;;;;;16.06;100.00;101253.03;5010734;28;20284;-86
2023/09/29 03:54:18;;;;;;;6.28;2.78;;;;;;;16.07;100.00;101262.72;5009249;28;20018;-87
2023/09/29 03:56:44;;;;;;;4.65;3.10;;;;;;;16.06;100.00;101255.72;5009413;28;20096;-86
2023/09/29 03:59:10;;;;;;;5.63;2.97;;;;;;;16.04;100.00;101260.63;5008894;28;20026;-86
2023/09/29 04:01:36;;;;;;;10.02;3.20;;;;;;;16.00;100.00;101256.84;5007817;28;20492;-90
2023/09/29 04:04:02;;;;;;;5.67;2.87;;;;;;;15.96;100.00;101261.22;5012465;28;20112;-90
2023/09/29 04:06:28;;;;;;;5.95;3.10;;;;;;;15.97;100.00;101252.00;5011157;28;20107;-89
2023/09/29 04:08:54;;;;;;;5.33;2.70;;;;;;;15.99;100.00;101256.03;5006711;28;20029;-90
2023/09/29 04:11:19;;;;;;;6.53;3.22;;;;;;;15.97;100.00;101249.31;5008432;28;20037;-90
2023/09/29 04:13:45;;;;;;;7.93;3.00;;;;;;;15.93;100.00;101237.44;5008793;28;20022;-91
2023/09/29 04:16:10;;;;;;;8.43;3.17;;;;;;;15.94;100.00;101244.47;5011489;28;22036;-89
2023/09/29 04:18:35;;;;;;;3.30;3.00;;;;;;;15.96;100.00;101248.53;5011362;28;20370;-90
2023/09/29 04:21:01;;;;;;;3.00;2.70;;;;;;;15.99;100.00;101263.34;5011666;28;20029;-90
2023/09/29 04:23:27;;;;;;;6.03;2.97;;;;;;;16.02;100.00;101263.59;5010675;28;20029;-89
2023/09/29 04:25:52;;;;;;;5.67;3.13;;;;;;;16.03;100.00;101262.50;5009875;28;20119;-92
2023/09/29 04:28:18;;;;;;;5.88;2.80;;;;;;;16.05;100.00;101251.41;5014410;28;20026;-91
2023/09/29 04:30:43;;;;;;;6.27;3.00;;;;;;;16.07;100.00;101240.31;5010639;28;20036;-90
2023/09/29 04:33:08;;;;;;;5.27;3.27;;;;;;;16.08;100.00;101231.91;5012120;28;20022;-92
2023/09/29 04:35:34;;;;;;;6.40;3.00;;;;;;;16.10;100.00;101227.00;5011157;28;20026;-92
2023/09/29 04:38:00;;;;;;;7.53;3.00;;;;;;;16.13;100.00;101239.97;5008749;28;20030;-88
2023/09/29 04:40:25;;;;;;;4.05;2.75;;;;;;;16.13;100.00;101231.84;5009695;28;20400;-88
2023/09/29 04:42:51;;;;;;;5.40;3.03;;;;;;;16.14;100.00;101243.50;5009330;28;20034;-90
2023/09/29 04:45:17;;;;;;;7.13;3.30;;;;;;;16.17;100.00;101234.78;5009871;28;20025;-90
2023/09/29 04:47:42;;;;;;;6.78;3.03;;;;;;;16.18;100.00;101223.72;5011038;28;20065;-90
2023/09/29 04:50:08;;;;;;;6.87;3.40;;;;;;;16.18;100.00;101221.00;5010545;28;20100;-90
2023/09/29 04:52:35;;;;;;;6.55;3.00;;;;;;;16.21;100.00;101225.03;5009078;28;20026;-88
2023/09/29 04:55:00;;;;;;;4.47;2.78;;;;;;;16.18;100.00;101229.13;5007021;28;20064;-88
2023/09/29 04:57:26;;;;;;;5.33;3.00;;;;;;;16.23;100.00;101230.94;5010569;28;20453;-88
2023/09/29 04:59:51;;;;;;;7.70;3.10;;;;;;;16.23;100.00;101235.56;5009962;28;20040;-87
2023/09/29 05:02:16;;;;;;;5.60;2.90;;;;;;;16.20;100.00;101232.34;5008972;28;20087;-88
2023/09/29 05:04:43;;;;;;;6.40;2.73;;;;;;;16.26;100.00;101234.97;5011078;28;20024;-87
2023/09/29 05:07:08;;;;;;;7.00;2.95;;;;;;;16.27;100.00;101229.28;5012666;28;20030;-87
2023/09/29 05:09:37;;;;;;;7.57;2.97;;;;;;;16.29;100.00;101227.13;5010906;28;20037;-87
2023/09/29 05:12:02;;;;;;;5.78;2.78;;;;;;;16.32;100.00;101217.59;5018633;28;20068;-87
2023/09/29 05:14:27;;;;;;;6.03;3.50;;;;;;;16.29;100.00;101223.59;5010134;28;20029;-88
2023/09/29 05:16:54;;;;;;;6.23;3.00;;;;;;;16.34;100.00;101220.84;5009723;28;20301;-87
2023/09/29 05:19:19;;;;;;;4.50;3.00;;;;;;;16.34;100.00;101218.13;5010045;28;20465;-87
2023/09/29 05:21:45;;;;;;;7.87;3.10;;;;;;;16.35;100.00;101215.13;5009991;28;20276;-87
2023/09/29 05:24:10;;;;;;;4.80;3.13;;;;;;;16.35;100.00;101211.63;5006475;28;20045;-87
2023/09/29 05:26:35;;;;;;;8.33;2.93;;;;;;;16.37;100.00;101206.75;5009822;28;20477;-88
2023/09/29 05:29:01;;;;;;;8.20;2.80;;;;;;;16.37;100.00;101209.44;5006367;28;20327;-88
2023/09/29 05:31:26;;;;;;;4.97;2.80;;;;;;;16.42;100.00;101214.81;5009640;28;20021;-90
2023/09/29 05:33:54;;;;;;;5.00;2.93;;;;;;;16.38;100.00;101194.84;5008912;28;20041;-88
2023/09/29 05:36:20;;;;;;;5.43;2.90;;;;;;;16.42;100.00;101203.16;5009278;28;20026;-89
2023/09/29 05:38:46;;;;;;;6.32;3.00;;;;;;;16.42;100.00;101201.28;5005941;28;20026;-89
2023/09/29 05:41:11;;;;;;;3.60;2.50;;;;;;;16.43;100.00;101200.16;5009008;28;20026;-89
2023/09/29 05:43:37;;;;;;;6.50;2.95;;;;;;;16.47;100.00;101209.31;5009101;28;20049;-89
2023/09/29 05:46:02;;;;;;;6.37;3.20;;;;;;;16.47;100.00;101203.91;5008336;28;20022;-85
2023/09/29 05:48:27;;;;;;;4.23;2.60;;;;;;;16.51;100.00;101212.28;5008903;28;20113;-83
2023/09/29 05:50:53;;;;;;;6.07;2.90;;;;;;;16.59;100.00;101208.91;5008630;28;20026;-83
2023/09/29 05:53:18;;;;;;;3.92;2.83;;;;;;;16.62;100.00;101215.63;5002721;28;20170;-83
2023/09/29 05:55:44;;;;;;;5.93;3.07;;;;;;;16.63;100.00;101214.53;4994358;28;20042;-82
2023/09/29 05:58:09;;;;;;;5.60;2.70;;;;;;;16.64;100.00;101213.44;5009475;28;20042;-83
2023/09/29 06:00:35;;;;;;;10.73;3.07;;;;;;;16.65;100.00;101209.66;5007621;28;20037;-82
2023/09/29 06:03:01;;;;;;;6.27;2.60;;;;;;;16.69;100.00;101207.97;5009615;28;20564;-82
2023/09/29 06:05:27;;;;;;;5.18;2.90;;;;;;;16.73;100.00;101214.44;5009605;28;20117;-83
2023/09/29 06:07:52;;;;;;;6.20;2.80;;;;;;;16.75;100.00;101216.84;5007224;28;20128;-83
2023/09/29 06:10:18;;;;;;;8.00;3.00;;;;;;;16.75;100.00;101214.13;5000054;28;20532;-82
2023/09/29 06:12:43;;;;;;;3.70;2.60;;;;;;;16.77;100.00;101204.66;5010878;28;20018;-83
2023/09/29 06:15:09;;;;;;;7.13;2.50;;;;;;;16.80;100.00;101214.06;5007728;28;20500;-82
2023/09/29 06:17:35;;;;;;;5.82;2.80;;;;;;;16.88;100.00;101221.56;5009914;28;20053;-82
2023/09/29 06:20:00;;;;;;;4.03;2.70;;;;;;;16.92;100.00;101229.91;5008456;28;20644;-82
2023/09/29 06:22:26;;;;;;;4.13;2.70;;;;;;;17.01;100.00;101239.00;5008097;28;20046;-82
2023/09/29 06:24:51;;;;;;;6.63;2.73;;;;;;;17.06;100.00;101228.09;5004213;28;20404;-82
2023/09/29 06:27:16;;;;;;;5.33;2.70;;;;;;;17.14;100.00;101223.13;5008460;28;20057;-83
2023/09/29 06:29:46;;;;;;;8.38;2.58;;;;;;;17.19;100.00;101220.34;5006472;28;20018;-82
2023/09/29 06:32:12;;;;;;;5.27;2.80;;;;;;;17.24;100.00;101218.38;5009514;28;20532;-82
2023/09/29 06:34:38;;;;;;;5.72;2.97;;;;;;;17.30;100.00;101215.56;5006255;28;20129;-83
2023/09/29 06:37:03;;;;;;;13.20;2.70;;;;;;;17.36;100.00;101225.25;5012971;28;20022;-82
2023/09/29 06:39:29;;;;;;;6.93;2.90;;;;;;;17.43;100.00;101224.88;5012749;28;20048;-83
2023/09/29 06:41:55;;;;;;;3.17;2.38;;;;;;;17.51;100.00;101224.22;5008313;28;20018;-82
2023/09/29 06:44:22;;;;;;;4.47;2.20;;;;;;;17.58;100.00;101224.63;5007872;28;20062;-82
2023/09/29 06:46:48;;;;;;;4.45;2.55;;;;;;;17.66;100.00;101220.44;5008359;28;20520;-82
2023/09/29 06:49:13;;;;;;;10.67;3.10;;;;;;;17.71;100.00;101220.34;5013059;28;20038;-82
2023/09/29 06:51:38;;;;;;;3.08;2.33;;;;;;;17.78;100.00;101233.53;5012985;28;20481;-82
2023/09/29 06:54:04;;;;;;;6.83;2.43;;;;;;;17.80;100.00;101234.03;5011863;28;20026;-82
2023/09/29 06:56:29;;;;;;;3.37;2.23;;;;;;;17.80;100.00;101226.69;5011395;28;20037;-82
2023/09/29 06:58:55;;;;;;;4.07;2.27;;;;;;;17.81;100.00;101236.44;5011889;28;20034;-84
2023/09/29 07:01:21;;;;;;;10.07;2.58;;;;;;;17.84;100.00;101240.47;5013426;28;20034;-83
2023/09/29 07:03:47;;;;;;;7.87;2.37;;;;;;;17.90;100.00;101239.28;5012622;28;20079;-84
2023/09/29 07:06:13;;;;;;;6.87;2.30;;;;;;;17.89;100.00;101239.56;5011705;28;20376;-83
2023/09/29 07:08:38;;;;;;;4.88;2.40;;;;;;;17.94;100.00;101244.91;5010665;28;20537;-84
2023/09/29 07:11:04;;;;;;;4.67;2.30;;;;;;;17.97;100.00;101250.53;5012155;28;20091;-84
2023/09/29 07:13:29;;;;;;;5.70;2.50;;;;;;;17.99;100.00;101250.25;5012411;28;20026;-84
2023/09/29 07:15:54;;;;;;;7.37;2.73;;;;;;;17.99;100.00;101242.94;5011573;28;20037;-84
2023/09/29 07:18:21;;;;;;;6.18;2.30;;;;;;;17.99;100.00;101248.38;5012557;28;20163;-84
2023/09/29 07:20:50;;;;;;;6.47;2.60;;;;;;;18.04;100.00;101249.41;5010706;28;20030;-83
2023/09/29 07:23:16;;;;;;;3.93;2.20;;;;;;;18.10;100.00;101251.72;5010898;28;20364;-83
2023/09/29 07:25:41;;;;;;;7.63;2.42;;;;;;;18.16;100.00;101241.56;5011301;28;20782;-83
2023/09/29 07:28:11;;;;;;;7.03;2.40;;;;;;;18.21;100.00;101255.03;5007913;28;20034;-84
2023/09/29 07:30:36;;;;;;;5.10;2.43;;;;;;;18.26;100.00;101256.84;5005455;28;20022;-84
2023/09/29 07:33:02;;;;;;;2.97;2.20;;;;;;;18.31;100.00;101259.47;5003820;28;20018;-84
2023/09/29 07:35:27;;;;;;;5.23;2.40;;;;;;;18.39;100.00;101256.06;5006347;28;20026;-85
2023/09/29 07:37:52;;;;;;;6.03;2.40;;;;;;;18.54;100.00;101257.69;5009625;28;20034;-84
2023/09/29 07:40:18;;;;;;;7.40;2.40;;;;;;;18.69;100.00;101255.75;5010190;28;20037;-85
2023/09/29 07:42:43;;;;;;;8.10;2.33;;;;;;;18.79;100.00;101255.56;5005221;28;20036;-85
2023/09/29 07:45:09;;;;;;;4.40;2.33;;;;;;;19.00;100.00;101271.44;5005037;28;20033;-85
2023/09/29 07:47:34;;;;;;;3.92;2.22;;;;;;;19.20;100.00;101267.50;5003296;28;20064;-85
2023/09/29 07:50:00;;;;;;;2.80;2.30;;;;;;;19.29;100.00;101262.91;5012838;28;20028;-85
2023/09/29 07:52:28;;;;;;;6.27;2.50;;;;;;;19.33;100.00;101260.41;5005495;28;20073;-85
2023/09/29 07:54:54;;;;;;;3.13;1.92;;;;;;;19.42;100.00;101264.00;5010038;28;20029;-85
2023/09/29 07:57:20;;;;;;;4.00;2.05;;;;;;;19.57;100.00;101262.84;5012614;28;20053;-85
2023/09/29 07:59:45;;;;;;;7.57;2.27;;;;;;;19.67;100.00;101259.06;5004927;28;20029;-84
2023/09/29 08:02:10;;;;;;;3.03;2.20;;;;;;;19.76;100.00;101273.50;5010114;28;20041;-84
2023/09/29 08:04:36;;;;;;;3.23;2.07;;;;;;;19.80;100.00;101263.63;5009418;28;20055;-84
2023/09/29 08:07:01;;;;;;;3.47;2.10;;;;;;;19.81;100.00;101270.69;5009006;28;20036;-85
2023/09/29 08:09:27;;;;;;;6.88;2.20;;;;;;;19.85;100.00;101278.22;5009075;28;20048;-85
2023/09/29 08:11:52;;;;;;;5.63;2.33;;;;;;;19.91;100.00;101277.00;5009979;28;20692;-86
2023/09/29 08:14:18;;;;;;;5.00;2.20;;;;;;;19.97;100.00;101278.47;5011460;28;20022;-85
2023/09/29 08:16:43;;;;;;;4.20;2.35;;;;;;;20.09;100.00;101281.41;5010852;28;20473;-85
2023/09/29 08:19:08;;;;;;;3.63;2.00;;;;;;;20.25;100.00;101289.22;5013305;28;20021;-86
2023/09/29 08:21:35;;;;;;;3.93;2.03;;;;;;;20.32;100.00;101292.25;5013284;28;20029;-85
2023/09/29 08:24:02;;;;;;;4.97;2.10;;;;;;;20.28;100.00;101291.28;5009309;28;20084;-85
2023/09/29 08:26:29;;;;;;;5.55;2.40;;;;;;;20.29;100.00;101298.31;5010474;28;20612;-85
2023/09/29 08:28:56;;;;;;;4.35;2.15;;;;;;;20.32;100.00;101300.44;5011155;28;20033;-85
2023/09/29 08:31:21;;;;;;;3.13;2.00;;;;;;;20.41;100.00;101305.91;5009224;28;20389;-86
2023/09/29 08:33:47;;;;;;;6.20;2.28;;;;;;;20.54;100.00;101312.38;5009757;28;20075;-84
2023/09/29 08:36:12;;;;;;;6.80;2.50;;;;;;;20.66;100.00;101312.56;5009369;28;20033;-85
2023/09/29 08:38:37;;;;;;;5.00;2.20;;;;;;;20.67;100.00;101316.91;5011828;28;20670;-85
2023/09/29 08:41:03;;;;;;;4.67;2.50;;;;;;;20.65;100.00;101312.91;5011770;28;20026;-85
2023/09/29 08:43:29;;;;;;;4.10;2.40;;;;;;;20.68;100.00;101321.22;5010550;28;20032;-86
2023/09/29 08:46:00;;;;;;;3.93;2.50;;;;;;;20.70;100.00;101327.16;5009593;28;20035;-87
2023/09/29 08:48:35;;;;;;;5.28;2.63;;;;;;;20.79;100.00;101327.22;5010121;28;20034;-86
2023/09/29 08:51:01;;;;;;;5.78;2.50;;;;;;;21.03;100.00;101336.94;5009448;28;20030;-86
2023/09/29 08:53:28;;;;;;;5.47;2.50;;;;;;;21.12;100.00;101332.28;5009339;28;20033;-86
2023/09/29 08:55:54;;;;;;;8.10;2.47;;;;;;;21.19;100.00;101337.25;5008469;28;20029;-87
2023/09/29 08:58:20;;;;;;;6.17;2.80;;;;;;;21.31;100.00;101342.91;5008649;28;20026;-85
2023/09/29 09:00:46;;;;;;;5.90;2.37;;;;;;;21.44;100.00;101326.72;5009518;28;20803;-86
2023/09/29 09:03:11;;;;;;;4.47;2.53;;;;;;;21.53;100.00;101335.72;5003111;28;20030;-87
2023/09/29 09:05:37;;;;;;;4.30;2.60;;;;;;;21.59;100.00;101339.88;4994880;28;20022;-85
2023/09/29 09:08:03;;;;;;;4.45;2.60;;;;;;;21.68;100.00;101341.84;5008064;28;20057;-86
2023/09/29 09:10:36;;;;;;;7.13;2.80;;;;;;;21.71;100.00;101346.66;5009858;28;20033;-86
2023/09/29 09:13:07;;;;;;;8.43;2.50;;;;;;;21.73;100.00;101345.19;5009460;28;20977;-86
2023/09/29 09:15:33;;;;;;;5.85;2.35;;;;;;;21.85;100.00;101347.28;5007274;28;20088;-86
2023/09/29 09:17:59;;;;;;;6.15;2.53;;;;;;;22.02;100.00;101356.56;5004196;28;20033;-85
2023/09/29 09:20:25;;;;;;;5.82;2.55;;;;;;;22.29;100.00;101352.66;5008647;28;20033;-87
2023/09/29 09:23:01;;;;;;;4.37;2.50;;;;;;;22.45;100.00;101342.06;5007782;28;20144;-88
2023/09/29 09:25:31;;;;;;;6.60;2.42;;;;;;;22.38;100.00;101353.44;5010824;28;20037;-88
2023/09/29 09:27:56;;;;;;;5.05;2.22;;;;;;;22.12;100.00;101356.22;5009391;28;20439;-90
2023/09/29 09:30:23;;;;;;;8.23;2.60;;;;;;;21.95;100.00;101367.97;5010617;28;20098;-89
2023/09/29 09:32:49;;;;;;;4.93;2.72;;;;;;;21.80;100.00;101371.19;5009254;28;20113;-88
2023/09/29 09:35:28;;;;;;;7.45;2.60;;;;;;;21.83;100.00;101373.25;5008565;28;20217;-88
2023/09/29 09:37:54;;;;;;;4.60;2.30;;;;;;;21.91;100.00;101373.25;5004998;28;20034;-88
2023/09/29 09:40:21;;;;;;;5.10;2.53;;;;;;;22.08;100.00;101372.44;5005346;28;20356;-89
2023/09/29 09:42:47;;;;;;;4.40;2.58;;;;;;;22.38;100.00;101375.25;5008970;28;20299;-90
2023/09/29 09:45:16;;;;;;;7.35;3.15;;;;;;;22.48;100.00;101378.81;5010342;28;20041;-89
2023/09/29 09:47:42;;;;;;;5.78;2.45;;;;;;;22.30;100.00;101388.94;5010338;28;20026;-90
2023/09/29 09:50:10;;;;;;;3.67;2.45;;;;;;;22.13;100.00;101382.38;5010875;28;20029;-90
2023/09/29 09:52:37;;;;;;;7.67;2.53;;;;;;;21.90;100.00;101382.59;5010719;28;20037;-90
2023/09/29 09:55:10;;;;;;;3.63;2.33;;;;;;;21.75;100.00;101388.50;5007975;28;20716;-89
2023/09/29 09:57:41;;;;;;;6.25;2.90;;;;;;;21.61;100.00;101385.94;4990882;28;20038;-89
2023/09/29 10:00:12;;;;;;;3.78;2.30;;;;;;;21.62;100.00;101391.06;4999000;28;20033;-90
2023/09/29 10:02:46;;;;;;;5.20;2.70;;;;;;;21.70;100.00;101394.13;5010504;28;20083;-90
2023/09/29 10:05:22;;;;;;;108.75;15.55;;;;;;;21.82;100.00;101407.94;5009005;28;20041;-90
2023/09/29 10:07:49;;;;;;;13.80;3.88;;;;;;;21.86;100.00;101411.63;5009786;28;20030;-90
2023/09/29 10:10:34;;;;;;;8.00;2.60;;;;;;;22.07;100.00;101400.84;5012192;28;20061;-88
2023/09/29 10:13:00;;;;;;;7.50;2.97;;;;;;;22.21;100.00;101403.41;5017982;28;20456;-92
2023/09/29 10:15:32;;;;;;;10.73;2.90;;;;;;;22.18;100.00;101403.25;5017593;28;20045;-92
2023/09/29 10:18:12;;;;;;;6.70;3.00;;;;;;;21.99;100.00;101409.03;5015749;28;20037;-91
2023/09/29 10:20:37;;;;;;;6.90;2.50;;;;;;;21.94;100.00;101413.53;5013256;28;20030;-91
2023/09/29 10:23:06;;;;;;;4.73;2.40;;;;;;;21.84;100.00;101411.13;5007060;28;20022;-90
2023/09/29 10:25:34;;;;;;;4.70;2.75;;;;;;;21.98;100.00;101407.44;5013210;28;20519;-90
2023/09/29 10:28:01;;;;;;;5.57;2.58;;;;;;;22.12;100.00;101412.75;5011243;28;20488;-91
2023/09/29 10:30:27;;;;;;;6.50;2.78;;;;;;;22.10;100.00;101415.78;5015011;28;20057;-91
2023/09/29 10:33:05;;;;;;;4.50;2.63;;;;;;;22.05;100.00;101410.50;5012671;28;20358;-87
2023/09/29 10:35:33;;;;;;;7.05;2.55;;;;;;;22.09;100.00;101423.16;5009055;28;20064;-87
2023/09/29 10:38:11;;;;;;;6.03;2.63;;;;;;;22.20;100.00;101418.19;5011329;28;20042;-87
2023/09/29 10:40:37;;;;;;;8.98;2.80;;;;;;;22.23;100.00;101422.19;5013547;28;20034;-88
2023/09/29 10:43:04;;;;;;;5.88;2.60;;;;;;;22.28;100.00;101424.75;5009820;28;20036;-88
2023/09/29 10:45:37;;;;;;;6.20;2.33;;;;;;;22.32;100.00;101431.19;5013476;28;20477;-89
2023/09/29 10:48:07;;;;;;;6.53;2.80;;;;;;;22.22;100.00;101424.13;5015636;28;20385;-88
2023/09/29 10:50:43;;;;;;;7.57;2.80;;;;;;;22.22;100.00;101426.84;5000808;28;20245;-89
2023/09/29 10:53:10;;;;;;;6.30;2.80;;;;;;;22.11;100.00;101430.22;5009044;28;20018;-87
2023/09/29 10:55:42;;;;;;;5.50;2.50;;;;;;;21.94;100.00;101431.84;5012869;28;20025;-86
2023/09/29 10:58:08;;;;;;;3.75;2.30;;;;;;;21.84;100.00;101438.41;5012711;28;20038;-85
2023/09/29 11:00:43;;;;;;;7.77;2.73;;;;;;;21.78;100.00;101445.97;5014279;28;20109;-86
2023/09/29 11:03:12;;;;;;;6.38;2.63;;;;;;;21.89;100.00;101442.91;5013801;28;20030;-85
2023/09/29 11:05:48;;;;;;;4.30;2.63;;;;;;;22.02;100.00;101438.41;5013274;28;20043;-86
2023/09/29 11:08:14;;;;;;;6.78;2.28;;;;;;;21.96;100.00;101454.16;5008093;28;20388;-85
2023/09/29 11:10:41;;;;;;;6.43;2.67;;;;;;;22.04;100.00;101452.53;5008875;28;20381;-84
2023/09/29 11:13:16;;;;;;;5.17;2.63;;;;;;;22.23;100.00;101454.94;5007765;28;20289;-84
2023/09/29 11:15:42;;;;;;;6.43;2.60;;;;;;;22.36;100.00;101458.63;5010708;28;20037;-85